Porter, Oklahoma
Current Conditions -  °F | °C
As of 5:53 PM on Wednesday 26 Nov 2014 (Local Time) from KMKO Reporting Station
Clear Clear  
Wind Chill: 42°   Ceiling: Unl
Heat Index: 47°   Visibility: 10mi
Dew Point: 26°   Wind: 12mph
Humidity: 44%   Direction: 320°NW
Pressure: 30.26"   Gusts: NA
Location:  35.87°N, 95.52°W
Report Text: KMKO 262353Z AUTO 32010KT 10SM CLR 08/M03 A3026 RMK AO2 SLP247 60000 T00831033 10133 20083 53032
Loading
Personal Weather Stations






























Interactive Weather Map New forecast layout! Learn more

10-Day Weather Forecast

Advertisements
Track Severe Weather on mobile